Williamsburg, Michigan
Current Conditions -  °F | °C
As of 12:00 PM on Sunday 23 Nov 2014 (Local Time) from KTVC Reporting Station
Overcast Overcast  
Wind Chill: 11°   Ceiling: 3400
Heat Index: 11°   Visibility: 10mi
Dew Point:   Wind: 7mph
Humidity: 74%   Direction: NA
Pressure: 29.66"   Gusts: 17mph
Location:  44.77°N, 85.4°W
Report Text: KTVC 231700Z VRB06G15KT 10SM SCT023 OVC034 11/06 A2966 RMK AO2 T01060061
Loading
Personal Weather Stations






























Interactive Weather Map New forecast layout! Learn more

10-Day Weather Forecast

Advertisements
Track Severe Weather on mobile